Time;durP1;ratioP1;P1;durP2;ratioP2;P2;SDS_P1;SDS_P2;PMS_P1;PMS_P2;Temp;Humidity;BMP_temperature;BMP_pressure;BME280_temperature;BME280_humidity;BME280_pressure;Samples;Min_cycle;Max_cycle;Signal;HPM_P1;HPM_P2
2021/12/23 00:01:49;;;;;;;29.63;15.77;;;-1.10;99.90;;;;;;5011423;28;20456;-77
2021/12/23 00:04:15;;;;;;;35.35;16.38;;;-1.60;99.90;;;;;;4996364;28;20050;-82
2021/12/23 00:06:44;;;;;;;29.33;14.73;;;-1.60;99.90;;;;;;5030368;28;20053;-78
2021/12/23 00:09:10;;;;;;;30.75;14.25;;;-1.60;99.90;;;;;;5017790;28;20128;-77
2021/12/23 00:11:36;;;;;;;;;;;-1.60;99.90;;;;;;5018005;28;20049;-78
2021/12/23 00:14:08;;;;;;;26.55;13.68;;;-1.60;99.90;;;;;;5029697;28;20490;-78
2021/12/23 00:23:20;;;;;;;28.42;13.63;;;-1.60;99.90;;;;;;5015397;28;20059;-76
2021/12/23 00:24:48;;;;;;;35.58;15.40;;;-1.60;99.90;;;;;;5031988;28;20064;-76
2021/12/23 00:27:14;;;;;;;29.23;13.50;;;-1.40;99.90;;;;;;5023597;28;20049;-77
2021/12/23 00:29:40;;;;;;;;;;;-1.60;99.90;;;;;;5026957;28;20053;-77
2021/12/23 00:32:08;;;;;;;32.65;14.80;;;-1.60;99.90;;;;;;5030660;28;19925;-77
2021/12/23 00:34:38;;;;;;;28.25;14.90;;;-1.60;99.90;;;;;;5030853;28;20056;-77
2021/12/23 00:37:07;;;;;;;28.77;13.02;;;-1.50;99.90;;;;;;5013220;28;20063;-77
2021/12/23 00:39:33;;;;;;;29.42;14.40;;;-1.60;99.90;;;;;;5024902;28;20521;-79
2021/12/23 00:42:07;;;;;;;30.50;13.93;;;-1.10;99.90;;;;;;4979050;28;20054;-77
2021/12/23 00:44:35;;;;;;;31.50;15.10;;;-1.50;99.90;;;;;;5021428;28;20079;-77
2021/12/23 00:47:01;;;;;;;31.48;14.82;;;-1.50;99.90;;;;;;5027850;28;20690;-77
2021/12/23 00:49:26;;;;;;;29.58;14.38;;;-1.50;99.90;;;;;;5030053;28;20053;-77
2021/12/23 00:51:53;;;;;;;29.45;15.00;;;-1.50;99.90;;;;;;5005059;28;20037;-77
2021/12/23 00:54:19;;;;;;;29.67;14.13;;;-1.50;99.90;;;;;;5030785;28;20053;-76
2021/12/23 00:56:48;;;;;;;28.42;13.90;;;-1.40;99.90;;;;;;4995294;28;20478;-79
2021/12/23 00:59:14;;;;;;;35.85;15.52;;;-1.40;99.90;;;;;;5014131;28;20548;-76
2021/12/23 01:01:41;;;;;;;33.72;14.90;;;-1.40;99.90;;;;;;5030809;28;20044;-77
2021/12/23 01:04:07;;;;;;;29.83;14.35;;;-1.40;99.90;;;;;;5014657;28;20092;-76
2021/12/23 01:06:33;;;;;;;28.48;14.63;;;-1.40;99.90;;;;;;5002684;28;20081;-76
2021/12/23 01:08:58;;;;;;;29.48;14.05;;;-1.40;99.90;;;;;;5020242;28;20551;-77
2021/12/23 01:11:25;;;;;;;29.90;14.23;;;-1.40;99.90;;;;;;5027499;28;20077;-83
2021/12/23 01:19:24;;;;;;;28.38;13.95;;;-1.40;99.90;;;;;;5019335;28;20266;-82
2021/12/23 01:21:51;;;;;;;31.67;14.80;;;-1.40;99.90;;;;;;5013276;28;20054;-77
2021/12/23 01:24:18;;;;;;;28.77;14.13;;;-0.50;99.90;;;;;;5015407;28;20053;-77
2021/12/23 01:26:44;;;;;;;29.52;14.13;;;-1.30;99.90;;;;;;5013729;28;20057;-78
2021/12/23 01:29:10;;;;;;;30.95;14.35;;;-1.30;99.90;;;;;;5015592;28;20057;-76
2021/12/23 01:31:38;;;;;;;28.60;13.60;;;-1.30;99.90;;;;;;5034175;28;20110;-76
2021/12/23 01:34:05;;;;;;;27.08;13.73;;;-1.30;99.90;;;;;;5027853;28;20060;-77
2021/12/23 01:36:31;;;;;;;31.83;13.70;;;-1.30;99.90;;;;;;5024978;28;20088;-76
2021/12/23 01:38:57;;;;;;;30.85;13.68;;;-1.30;99.90;;;;;;5010674;28;20533;-77
2021/12/23 01:41:23;;;;;;;;;;;-1.30;99.90;;;;;;5020060;28;20537;-77
2021/12/23 01:43:50;;;;;;;30.30;13.87;;;-1.30;99.90;;;;;;5000629;28;19929;-77
2021/12/23 01:46:16;;;;;;;26.13;13.63;;;-1.30;99.90;;;;;;5030186;28;20045;-77
2021/12/23 01:48:42;;;;;;;26.80;13.00;;;-1.30;99.90;;;;;;4997958;28;20052;-77
2021/12/23 01:51:08;;;;;;;26.70;13.32;;;-0.40;99.90;;;;;;5029694;28;20040;-76
2021/12/23 01:53:34;;;;;;;26.75;13.27;;;-1.30;99.90;;;;;;5034092;28;20094;-77
2021/12/23 01:56:01;;;;;;;25.65;13.23;;;-1.30;99.90;;;;;;5015658;28;20053;-77
2021/12/23 01:58:27;;;;;;;26.70;13.60;;;-1.30;99.90;;;;;;5014393;28;20049;-77
2021/12/23 02:00:52;;;;;;;24.92;13.05;;;-1.30;99.90;;;;;;5014605;28;20087;-77
2021/12/23 02:03:19;;;;;;;26.67;14.00;;;-1.30;99.90;;;;;;4984902;28;20100;-77
2021/12/23 02:05:45;;;;;;;27.58;13.30;;;-1.30;99.90;;;;;;5012419;28;20057;-78
2021/12/23 02:08:11;;;;;;;26.88;13.05;;;-1.30;99.90;;;;;;5015634;28;20064;-77
2021/12/23 02:10:40;;;;;;;24.70;12.80;;;-1.30;99.90;;;;;;5030156;28;20638;-78
2021/12/23 02:13:06;;;;;;;26.45;12.57;;;-1.30;99.90;;;;;;5018596;28;20060;-77
2021/12/23 02:15:32;;;;;;;26.05;11.98;;;-1.30;99.90;;;;;;5013814;28;20655;-82
2021/12/23 02:17:58;;;;;;;27.55;13.50;;;-1.30;99.90;;;;;;5031883;28;20057;-77
2021/12/23 02:20:32;;;;;;;29.30;13.30;;;-1.20;99.90;;;;;;5021994;28;20084;-77
2021/12/23 02:22:58;;;;;;;29.10;13.23;;;-1.20;99.90;;;;;;5030077;28;20121;-77
2021/12/23 02:25:24;;;;;;;23.35;12.70;;;-1.20;99.90;;;;;;4997413;28;20065;-77
2021/12/23 02:27:51;;;;;;;24.70;12.45;;;-1.20;99.90;;;;;;5037565;28;20049;-76
2021/12/23 02:30:24;;;;;;;29.05;13.63;;;-0.80;99.90;;;;;;5051501;28;20064;-77
2021/12/23 02:32:52;;;;;;;27.30;13.05;;;-1.20;99.90;;;;;;5018881;28;20049;-78
2021/12/23 02:35:19;;;;;;;24.10;12.13;;;-1.20;99.90;;;;;;5012575;28;20100;-76
2021/12/23 02:37:47;;;;;;;27.80;12.10;;;-1.20;99.90;;;;;;5013983;28;20054;-78
2021/12/23 02:40:27;;;;;;;28.65;13.70;;;-1.20;99.90;;;;;;5025595;28;20089;-76
2021/12/23 02:42:54;;;;;;;25.60;12.70;;;-1.30;99.90;;;;;;5012967;28;20567;-78
2021/12/23 02:45:20;;;;;;;26.13;13.13;;;-1.30;99.90;;;;;;5024932;28;20474;-76
2021/12/23 02:47:47;;;;;;;24.60;12.95;;;-1.30;99.90;;;;;;5029056;28;20071;-77
2021/12/23 02:50:13;;;;;;;29.10;13.05;;;-1.30;99.90;;;;;;5012412;28;20049;-77
2021/12/23 02:52:38;;;;;;;27.02;13.48;;;-0.60;99.90;;;;;;5012959;28;20111;-77
2021/12/23 02:55:05;;;;;;;25.77;12.60;;;-1.30;99.90;;;;;;4987655;28;20457;-76
2021/12/23 02:57:32;;;;;;;23.42;12.18;;;-1.30;99.90;;;;;;5022806;28;20045;-77
2021/12/23 02:59:58;;;;;;;28.73;13.55;;;-1.30;99.90;;;;;;5020871;28;20052;-81
2021/12/23 03:02:24;;;;;;;25.45;12.93;;;-1.30;99.90;;;;;;4999264;28;20046;-77
2021/12/23 03:04:49;;;;;;;28.92;13.75;;;-1.30;99.90;;;;;;5012504;28;20045;-77
2021/12/23 03:07:15;;;;;;;27.73;12.90;;;-1.30;99.90;;;;;;4998491;28;20132;-77
2021/12/23 03:09:45;;;;;;;29.20;13.45;;;-0.20;99.90;;;;;;5022163;28;20049;-78
2021/12/23 03:12:10;;;;;;;27.80;13.50;;;-1.30;99.90;;;;;;5022470;28;20075;-77
2021/12/23 03:14:36;;;;;;;25.23;12.70;;;-1.20;99.90;;;;;;5012852;28;20049;-77
2021/12/23 03:17:02;;;;;;;28.55;13.35;;;-1.20;99.90;;;;;;5010837;28;20041;-78
2021/12/23 03:19:28;;;;;;;26.30;12.93;;;-1.20;99.90;;;;;;5018988;28;20532;-78
2021/12/23 03:21:54;;;;;;;29.02;12.80;;;-1.20;99.90;;;;;;5031005;28;20053;-76
2021/12/23 03:24:19;;;;;;;28.10;14.18;;;-1.20;99.90;;;;;;5000221;28;20044;-77
2021/12/23 03:26:46;;;;;;;26.33;12.75;;;-1.30;99.90;;;;;;5014547;28;20060;-76
2021/12/23 03:29:11;;;;;;;;;;;-0.40;99.90;;;;;;5033171;28;20052;-76
2021/12/23 03:31:38;;;;;;;27.27;12.40;;;-1.30;99.90;;;;;;5015950;28;20305;-76
2021/12/23 03:34:04;;;;;;;27.40;13.23;;;-1.30;99.90;;;;;;5022691;28;20049;-77
2021/12/23 03:36:30;;;;;;;;;;;-1.20;99.90;;;;;;5011927;28;20138;-77
2021/12/23 03:38:56;;;;;;;26.38;12.95;;;-1.20;99.90;;;;;;5018360;28;20396;-76
2021/12/23 03:41:22;;;;;;;25.98;12.98;;;-0.80;99.90;;;;;;5028709;28;20049;-76
2021/12/23 03:43:48;;;;;;;28.90;13.93;;;-1.30;99.90;;;;;;5023993;28;20055;-77
2021/12/23 03:46:13;;;;;;;28.08;13.98;;;-0.90;99.90;;;;;;5025544;28;20482;-76
2021/12/23 03:48:39;;;;;;;28.55;14.55;;;-0.50;99.90;;;;;;5019843;28;20057;-79
2021/12/23 03:51:05;;;;;;;29.63;13.18;;;-1.20;99.90;;;;;;5006296;28;20053;-76
2021/12/23 03:53:31;;;;;;;27.58;13.80;;;-1.20;99.90;;;;;;5031512;28;20150;-77
2021/12/23 03:55:57;;;;;;;25.05;13.18;;;-1.20;99.90;;;;;;5021288;28;20057;-77
2021/12/23 03:58:22;;;;;;;26.45;13.13;;;-1.20;99.90;;;;;;5004838;28;20046;-77
2021/12/23 04:00:49;;;;;;;27.25;14.25;;;-1.20;99.90;;;;;;5011840;28;20054;-77
2021/12/23 04:03:15;;;;;;;26.67;14.00;;;-1.20;99.90;;;;;;5012374;28;20482;-76
2021/12/23 04:05:41;;;;;;;32.25;14.52;;;-1.20;99.90;;;;;;5011853;28;20572;-82
2021/12/23 04:08:06;;;;;;;27.08;13.73;;;-0.50;99.90;;;;;;5032083;28;20053;-76
2021/12/23 04:10:33;;;;;;;27.85;13.73;;;-1.20;99.90;;;;;;5011727;28;20061;-77
2021/12/23 04:12:58;;;;;;;26.60;13.90;;;-1.20;99.90;;;;;;5012207;28;20064;-76
2021/12/23 04:15:24;;;;;;;25.25;13.68;;;-1.20;99.90;;;;;;5011750;28;20411;-76
2021/12/23 04:17:50;;;;;;;26.65;12.68;;;-1.20;99.90;;;;;;4995261;28;20049;-77
2021/12/23 04:20:23;;;;;;;27.98;13.68;;;-1.20;99.90;;;;;;5019560;28;20043;-76
2021/12/23 04:22:54;;;;;;;28.33;12.85;;;-1.20;99.90;;;;;;4994977;28;20049;-76
2021/12/23 04:25:23;;;;;;;26.33;13.57;;;-0.20;99.90;;;;;;5011440;28;20049;-77
2021/12/23 04:27:50;;;;;;;27.77;13.27;;;-1.20;99.90;;;;;;5011397;28;20666;-77
2021/12/23 04:30:18;;;;;;;22.90;12.48;;;-1.20;99.90;;;;;;5012086;28;20049;-77
2021/12/23 04:32:44;;;;;;;24.80;12.90;;;-1.10;99.90;;;;;;5011489;28;20089;-82
2021/12/23 04:35:10;;;;;;;;;;;-1.10;99.90;;;;;;5018091;28;20068;-76
2021/12/23 04:37:36;;;;;;;24.73;12.77;;;-1.20;99.90;;;;;;5023693;28;20361;-76
2021/12/23 04:40:06;;;;;;;26.33;13.95;;;-0.90;99.90;;;;;;5014190;28;20084;-78
2021/12/23 04:42:32;;;;;;;25.75;13.75;;;-1.10;99.90;;;;;;5011472;28;20468;-77
2021/12/23 04:44:58;;;;;;;28.35;13.68;;;-1.10;99.90;;;;;;4994770;28;20053;-77
2021/12/23 04:47:24;;;;;;;25.83;13.27;;;-1.10;99.90;;;;;;4995697;28;20111;-77
2021/12/23 04:49:50;;;;;;;26.50;13.70;;;-0.60;99.90;;;;;;4994942;28;20057;-77
2021/12/23 04:52:16;;;;;;;26.95;13.60;;;-1.00;99.90;;;;;;5020351;28;20049;-77
2021/12/23 04:54:41;;;;;;;31.08;14.70;;;-1.10;99.90;;;;;;5032163;28;20057;-79
2021/12/23 04:57:07;;;;;;;27.95;13.25;;;-1.10;99.90;;;;;;5021387;28;20308;-77
2021/12/23 04:59:33;;;;;;;28.30;13.25;;;-0.40;99.90;;;;;;5020854;28;20060;-78
2021/12/23 05:01:58;;;;;;;27.52;13.50;;;-0.40;99.90;;;;;;4998752;28;20053;-79
2021/12/23 05:04:24;;;;;;;26.13;13.77;;;-1.00;99.90;;;;;;5017096;28;20084;-77
2021/12/23 05:06:50;;;;;;;25.33;12.77;;;-1.00;99.90;;;;;;5016838;28;20135;-77
2021/12/23 05:09:15;;;;;;;26.75;12.75;;;-1.00;99.90;;;;;;5002903;28;20060;-78
2021/12/23 05:11:41;;;;;;;26.98;13.05;;;-0.60;99.90;;;;;;5034321;28;20494;-77
2021/12/23 05:14:07;;;;;;;24.80;12.20;;;-0.90;99.90;;;;;;5017144;28;20111;-79
2021/12/23 05:16:33;;;;;;;24.75;12.23;;;-0.90;99.90;;;;;;5032210;28;20088;-78
2021/12/23 05:18:58;;;;;;;25.42;13.23;;;-0.90;99.90;;;;;;5014644;28;20046;-78
2021/12/23 05:21:24;;;;;;;25.55;12.60;;;-0.90;99.90;;;;;;5017794;28;20049;-78
2021/12/23 05:23:50;;;;;;;23.13;12.95;;;-0.80;99.90;;;;;;5014994;28;20052;-83
2021/12/23 05:26:15;;;;;;;23.63;12.52;;;-0.80;99.90;;;;;;5002867;28;20053;-78
2021/12/23 05:28:41;;;;;;;24.25;12.48;;;-0.80;99.90;;;;;;4998685;28;20144;-78
2021/12/23 05:31:08;;;;;;;26.38;13.18;;;-0.80;99.90;;;;;;4983914;28;20057;-77
2021/12/23 05:33:34;;;;;;;24.85;13.35;;;-0.80;99.90;;;;;;5034745;28;20103;-77
2021/12/23 05:35:59;;;;;;;26.40;13.82;;;0.00;99.90;;;;;;5016582;28;20088;-77
2021/12/23 05:38:25;;;;;;;29.23;15.68;;;-0.80;99.90;;;;;;5034722;28;20045;-77
2021/12/23 05:40:51;;;;;;;30.23;14.20;;;-0.80;99.90;;;;;;5016684;28;20048;-82
2021/12/23 05:43:17;;;;;;;28.23;13.43;;;-0.80;99.90;;;;;;5014118;28;20124;-77
2021/12/23 05:45:43;;;;;;;25.50;13.88;;;-0.70;99.90;;;;;;4999085;28;20131;-78
2021/12/23 05:48:08;;;;;;;28.10;15.55;;;-0.70;99.90;;;;;;5017812;28;20048;-77
2021/12/23 05:50:34;;;;;;;29.85;14.73;;;-0.70;99.90;;;;;;5017016;28;20114;-78
2021/12/23 05:53:00;;;;;;;;;;;-0.80;99.90;;;;;;5017655;28;20041;-77
2021/12/23 05:55:26;;;;;;;30.40;15.38;;;-0.70;99.90;;;;;;5033762;28;19990;-78
2021/12/23 05:57:52;;;;;;;30.25;16.25;;;-0.80;99.90;;;;;;5017923;28;20049;-82
2021/12/23 06:00:28;;;;;;;30.88;15.23;;;-0.70;99.90;;;;;;4998397;28;20060;-77
2021/12/23 06:02:54;;;;;;;31.60;16.52;;;-0.80;99.90;;;;;;5020132;28;20053;-84
2021/12/23 06:05:21;;;;;;;32.80;16.23;;;-0.70;99.90;;;;;;5033294;28;20053;-77
2021/12/23 06:07:47;;;;;;;35.15;16.33;;;-0.70;99.90;;;;;;5026199;28;20087;-77
2021/12/23 06:10:14;;;;;;;29.33;14.70;;;-0.10;99.90;;;;;;5013605;28;20053;-77
2021/12/23 06:12:41;;;;;;;31.38;14.77;;;-0.70;99.90;;;;;;5013959;28;20045;-79
2021/12/23 06:15:07;;;;;;;28.98;14.70;;;-0.70;99.90;;;;;;4981579;28;20096;-77
2021/12/23 06:17:34;;;;;;;29.63;14.88;;;-0.70;99.90;;;;;;5026632;28;20053;-77
2021/12/23 06:20:00;;;;;;;29.52;14.35;;;-0.70;99.90;;;;;;5032573;28;20063;-81
2021/12/23 06:22:26;;;;;;;28.25;15.23;;;-0.70;99.90;;;;;;5032996;28;20056;-79
2021/12/23 06:24:52;;;;;;;26.70;13.45;;;-0.70;99.90;;;;;;5003938;28;20509;-78
2021/12/23 06:27:19;;;;;;;29.95;14.23;;;0.00;99.90;;;;;;5013442;28;20142;-76
2021/12/23 06:29:45;;;;;;;26.00;13.10;;;-0.70;99.90;;;;;;5018741;28;20049;-81
2021/12/23 06:32:11;;;;;;;25.83;12.45;;;-0.10;99.90;;;;;;5033264;28;20398;-77
2021/12/23 06:34:37;;;;;;;25.92;13.85;;;-0.70;99.90;;;;;;5017239;28;20564;-80
2021/12/23 06:37:04;;;;;;;30.58;14.32;;;-0.70;99.90;;;;;;5015317;28;20088;-79
2021/12/23 06:39:32;;;;;;;29.48;14.40;;;-0.70;99.90;;;;;;5033082;28;20072;-79
2021/12/23 06:41:58;;;;;;;28.00;13.20;;;-0.70;99.90;;;;;;5033013;28;20135;-83
2021/12/23 06:44:23;;;;;;;27.05;13.50;;;-0.70;99.90;;;;;;5002420;28;20113;-78
2021/12/23 06:46:49;;;;;;;27.17;14.10;;;-0.70;99.90;;;;;;5020909;28;20576;-77
2021/12/23 06:49:16;;;;;;;30.02;14.07;;;-0.70;99.90;;;;;;5023208;28;20041;-77
2021/12/23 06:51:42;;;;;;;32.15;14.38;;;-0.70;99.90;;;;;;4995446;28;20042;-79
2021/12/23 06:54:09;;;;;;;28.27;14.45;;;0.40;99.90;;;;;;4997338;28;20053;-79
2021/12/23 06:56:35;;;;;;;30.95;14.23;;;-0.60;99.90;;;;;;5030515;28;20151;-77
2021/12/23 06:59:01;;;;;;;29.38;13.60;;;-0.60;99.90;;;;;;4997058;28;20124;-83
2021/12/23 07:01:26;;;;;;;30.52;14.13;;;-0.60;99.90;;;;;;4996400;28;20486;-77
2021/12/23 07:04:14;;;;;;;30.73;14.05;;;-0.60;99.90;;;;;;5013254;28;20080;-78
2021/12/23 07:06:47;;;;;;;25.45;13.70;;;-0.50;99.90;;;;;;5029731;28;20057;-77
2021/12/23 07:09:14;;;;;;;31.10;14.05;;;-0.20;99.90;;;;;;5008374;28;20053;-77
2021/12/23 07:11:39;;;;;;;27.85;14.52;;;-0.50;99.90;;;;;;5013760;28;20045;-77
2021/12/23 07:14:05;;;;;;;26.35;13.15;;;-0.50;99.90;;;;;;4996256;28;20529;-77
2021/12/23 07:16:32;;;;;;;31.75;13.65;;;-0.50;99.90;;;;;;5013809;28;20525;-77
2021/12/23 07:18:58;;;;;;;30.42;14.10;;;-0.50;99.90;;;;;;4997235;28;20052;-78
2021/12/23 07:21:23;;;;;;;30.13;14.77;;;-0.50;99.90;;;;;;4997783;28;20053;-78
2021/12/23 07:23:49;;;;;;;33.22;15.32;;;-0.40;99.90;;;;;;5033500;28;20485;-76
2021/12/23 07:26:17;;;;;;;30.15;14.93;;;-0.40;99.90;;;;;;5025264;28;20405;-76
2021/12/23 07:28:43;;;;;;;29.80;14.68;;;-0.40;99.90;;;;;;5014498;28;20057;-77
2021/12/23 07:31:08;;;;;;;;;;;0.90;99.90;;;;;;5013168;28;20051;-75
2021/12/23 07:33:35;;;;;;;28.83;14.00;;;-0.50;99.90;;;;;;5013351;28;20385;-76
2021/12/23 07:36:04;;;;;;;31.30;15.27;;;-0.30;99.90;;;;;;5010328;28;20052;-83
2021/12/23 07:38:31;;;;;;;31.10;15.00;;;-0.50;99.90;;;;;;5033522;28;20055;-80
2021/12/23 07:40:57;;;;;;;32.05;15.30;;;-0.50;99.90;;;;;;4999710;28;20053;-75
2021/12/23 07:46:03;;;;;;;35.00;15.38;;;-0.50;99.90;;;;;;5017289;28;20053;-75
2021/12/23 07:48:30;;;;;;;30.88;15.60;;;-0.50;99.90;;;;;;5031166;28;20103;-76
2021/12/23 07:50:57;;;;;;;32.20;14.90;;;-0.40;99.90;;;;;;5031433;28;20526;-76
2021/12/23 07:53:22;;;;;;;;;;;0.40;99.90;;;;;;5028227;28;20096;-76
2021/12/23 07:55:48;;;;;;;34.05;15.50;;;-0.40;99.90;;;;;;5012707;28;19968;-76
2021/12/23 07:58:14;;;;;;;32.20;16.38;;;-0.40;99.90;;;;;;4995676;28;20545;-76
2021/12/23 08:00:40;;;;;;;32.45;15.95;;;-0.40;99.90;;;;;;5012515;28;20494;-76
2021/12/23 08:03:06;;;;;;;34.13;15.60;;;-0.40;99.90;;;;;;5019877;28;20116;-81
2021/12/23 08:05:33;;;;;;;35.53;16.27;;;-0.40;99.90;;;;;;5011567;28;20152;-76
2021/12/23 08:07:59;;;;;;;37.58;15.82;;;-0.30;99.90;;;;;;5019583;28;20056;-76
2021/12/23 08:10:25;;;;;;;34.25;15.65;;;0.40;99.90;;;;;;5011045;28;20045;-76
2021/12/23 08:12:51;;;;;;;33.55;15.88;;;-0.30;99.90;;;;;;5013058;28;20053;-76
2021/12/23 08:15:16;;;;;;;35.17;15.70;;;-0.30;99.90;;;;;;5011672;28;20071;-77
2021/12/23 08:17:42;;;;;;;37.50;16.23;;;-0.30;99.90;;;;;;5012501;28;20041;-76
2021/12/23 08:20:10;;;;;;;33.90;14.70;;;-0.30;99.90;;;;;;5011117;28;20052;-75
2021/12/23 08:22:35;;;;;;;33.15;15.15;;;-0.30;99.90;;;;;;5012031;28;20045;-75
2021/12/23 08:25:01;;;;;;;34.30;15.50;;;0.50;99.90;;;;;;5012520;28;20107;-76
2021/12/23 08:27:29;;;;;;;34.80;16.50;;;-0.20;99.90;;;;;;4967663;28;20809;-76
2021/12/23 08:29:55;;;;;;;33.78;16.15;;;-0.20;99.90;;;;;;5016949;28;20049;-76
2021/12/23 08:32:21;;;;;;;43.83;18.15;;;0.60;99.90;;;;;;5014253;28;20049;-76
2021/12/23 08:34:47;;;;;;;40.08;16.83;;;-0.30;99.90;;;;;;5018757;28;20136;-76
2021/12/23 08:37:12;;;;;;;37.28;16.45;;;-0.20;99.90;;;;;;4998484;28;20128;-76
2021/12/23 08:39:39;;;;;;;37.55;16.92;;;-0.10;99.90;;;;;;5004339;28;20053;-78
2021/12/23 08:42:05;;;;;;;35.25;16.25;;;-0.30;99.90;;;;;;5013071;28;20058;-77
2021/12/23 08:44:31;;;;;;;38.38;16.77;;;-0.20;99.90;;;;;;5020046;28;20050;-76
2021/12/23 08:46:57;;;;;;;34.47;15.88;;;-0.20;99.90;;;;;;5014078;28;20443;-76
2021/12/23 08:49:23;;;;;;;37.17;15.77;;;-0.30;99.90;;;;;;5006230;28;20056;-76
2021/12/23 08:51:48;;;;;;;35.80;16.40;;;-0.20;99.90;;;;;;5008112;28;20041;-76
2021/12/23 08:54:14;;;;;;;42.67;17.52;;;-0.20;99.90;;;;;;5013117;28;20042;-77
2021/12/23 08:56:40;;;;;;;36.63;16.00;;;-0.30;99.90;;;;;;5011163;28;20045;-76
2021/12/23 08:59:06;;;;;;;41.72;17.65;;;-0.30;99.90;;;;;;5018135;28;20080;-76
2021/12/23 09:01:32;;;;;;;38.28;16.77;;;-0.30;99.90;;;;;;5014179;28;20054;-78
2021/12/23 09:03:57;;;;;;;39.88;16.80;;;-0.30;99.90;;;;;;5012699;28;20104;-76
2021/12/23 09:06:23;;;;;;;41.45;18.17;;;-0.30;99.90;;;;;;5008096;28;20053;-78
2021/12/23 09:08:49;;;;;;;40.75;17.85;;;0.40;99.90;;;;;;5012422;28;20073;-76
2021/12/23 09:11:14;;;;;;;38.95;17.52;;;-0.20;99.90;;;;;;4994672;28;20042;-75
2021/12/23 09:13:41;;;;;;;37.22;17.40;;;-0.20;99.90;;;;;;4996017;28;20494;-76
2021/12/23 09:16:07;;;;;;;38.10;17.30;;;-0.20;99.90;;;;;;5012350;28;20128;-75
2021/12/23 09:18:34;;;;;;;41.45;17.13;;;-0.20;99.90;;;;;;5015076;28;20565;-75
2021/12/23 09:21:00;;;;;;;44.63;19.45;;;0.70;99.90;;;;;;5018871;28;20050;-75
2021/12/23 09:23:26;;;;;;;35.25;14.98;;;0.10;99.90;;;;;;5022832;28;20041;-75
2021/12/23 09:25:52;;;;;;;38.75;16.70;;;0.10;99.90;;;;;;5032037;28;20045;-75
2021/12/23 09:33:29;;;;;;;37.42;17.98;;;0.20;99.90;;;;;;5031852;28;20148;-75
2021/12/23 09:35:56;;;;;;;42.65;18.88;;;-0.20;99.90;;;;;;5013928;28;20132;-76
2021/12/23 09:38:27;;;;;;;50.97;20.55;;;0.60;99.90;;;;;;5031403;28;20088;-75
2021/12/23 09:41:16;;;;;;;51.63;18.48;;;-0.20;99.90;;;;;;5031212;28;20509;-75
2021/12/23 09:43:42;;;;;;;46.25;18.58;;;0.20;99.90;;;;;;5006866;28;20055;-75
2021/12/23 09:46:10;;;;;;;47.50;19.60;;;-0.20;99.90;;;;;;5012087;28;20100;-75
2021/12/23 09:48:39;;;;;;;49.13;21.25;;;0.90;99.90;;;;;;5011676;28;20624;-75
2021/12/23 09:51:06;;;;;;;40.45;18.10;;;-0.20;99.90;;;;;;5010570;28;20057;-75
2021/12/23 09:53:34;;;;;;;50.97;20.20;;;-0.20;99.90;;;;;;4995110;28;20402;-75
2021/12/23 09:56:00;;;;;;;45.80;19.50;;;0.20;99.90;;;;;;5011392;28;20411;-75
2021/12/23 09:58:26;;;;;;;46.60;20.30;;;-0.10;99.90;;;;;;5011514;28;20050;-75
2021/12/23 10:00:53;;;;;;;;;;;-0.10;99.90;;;;;;5012047;28;20049;-75
2021/12/23 10:03:21;;;;;;;46.75;19.08;;;0.90;99.90;;;;;;5011259;28;19932;-76
2021/12/23 10:05:47;;;;;;;48.33;19.40;;;0.40;99.90;;;;;;5015048;28;20042;-75
2021/12/23 10:08:14;;;;;;;43.65;18.30;;;-0.10;99.90;;;;;;5022224;28;20482;-76
2021/12/23 10:38:39;;;;;;;52.28;21.30;;;0.10;99.90;;;;;;5011007;28;20058;-75
2021/12/23 10:41:15;;;;;;;44.58;19.35;;;0.10;99.90;;;;;;5010185;28;20548;-75
2021/12/23 10:43:52;;;;;;;45.63;18.17;;;0.10;99.90;;;;;;4993914;28;20060;-76
2021/12/23 10:46:25;;;;;;;48.33;19.63;;;0.20;99.90;;;;;;5016064;28;20391;-77
2021/12/23 10:52:05;;;;;;;45.80;20.20;;;0.10;99.90;;;;;;5014457;28;20075;-76
2021/12/23 11:00:17;;;;;;;49.78;19.67;;;0.50;99.90;;;;;;5014592;28;20050;-76
2021/12/23 11:03:39;;;;;;;49.17;20.48;;;0.10;99.90;;;;;;5011892;28;20111;-76
2021/12/23 11:11:35;;;;;;;55.33;21.73;;;0.10;99.90;;;;;;5016898;28;20561;-76
2021/12/23 11:36:32;;;;;;;54.90;22.45;;;0.70;99.90;;;;;;5002508;28;20057;-74
2021/12/23 11:43:57;;;;;;;54.08;22.50;;;0.20;99.90;;;;;;5019863;28;20499;-74
2021/12/23 11:46:38;;;;;;;56.20;23.27;;;0.60;99.90;;;;;;5018055;28;20053;-74
2021/12/23 11:49:07;;;;;;;59.53;22.65;;;0.20;99.90;;;;;;5019908;28;20053;-74
2021/12/23 11:51:51;;;;;;;50.15;20.13;;;0.20;99.90;;;;;;5011931;28;20053;-74
2021/12/23 11:54:29;;;;;;;57.05;23.17;;;0.20;99.90;;;;;;5013444;28;20056;-74
2021/12/23 11:57:05;;;;;;;52.65;21.77;;;0.20;99.90;;;;;;5016288;28;20038;-73
2021/12/23 11:59:36;;;;;;;60.40;23.90;;;0.20;99.90;;;;;;5010773;28;20384;-79
2021/12/23 12:02:21;;;;;;;60.85;23.70;;;0.40;99.90;;;;;;5007265;28;20060;-75
2021/12/23 12:04:48;;;;;;;63.72;24.80;;;0.20;99.90;;;;;;5016795;28;20041;-73
2021/12/23 12:07:20;;;;;;;60.63;24.55;;;0.50;99.90;;;;;;5011812;28;20061;-74
2021/12/23 12:10:07;;;;;;;55.20;22.42;;;0.20;99.90;;;;;;5007731;28;20561;-74
2021/12/23 12:12:35;;;;;;;54.15;22.98;;;0.30;99.90;;;;;;5015892;28;20128;-78
2021/12/23 12:15:03;;;;;;;60.58;23.63;;;0.30;99.90;;;;;;5018333;28;20400;-74
2021/12/23 12:17:33;;;;;;;61.08;22.48;;;0.30;99.90;;;;;;4994564;28;20046;-74
2021/12/23 12:20:22;;;;;;;56.85;20.40;;;0.30;99.90;;;;;;5013985;28;20133;-77
2021/12/23 12:22:55;;;;;;;51.17;18.63;;;0.30;99.90;;;;;;5014171;28;20112;-73
2021/12/23 12:25:24;;;;;;;57.28;22.45;;;0.30;99.90;;;;;;4993961;28;20277;-74
2021/12/23 12:27:56;;;;;;;60.17;23.30;;;1.10;99.90;;;;;;5007014;28;20088;-73
2021/12/23 12:30:40;;;;;;;55.58;22.23;;;0.30;99.90;;;;;;5009053;28;20107;-75
2021/12/23 12:33:13;;;;;;;57.17;21.52;;;0.80;99.90;;;;;;5023275;28;20568;-74
2021/12/23 12:35:40;;;;;;;59.80;22.60;;;0.40;99.90;;;;;;5014229;28;20053;-75
2021/12/23 12:38:23;;;;;;;49.60;20.17;;;0.70;99.90;;;;;;5010959;28;20115;-73
2021/12/23 12:40:56;;;;;;;54.75;22.20;;;1.00;99.90;;;;;;5023373;28;20534;-73
2021/12/23 12:43:52;;;;;;;55.90;22.98;;;0.40;99.90;;;;;;5008839;28;20045;-75
2021/12/23 12:46:34;;;;;;;56.55;21.45;;;1.30;99.90;;;;;;5018572;28;20471;-74
2021/12/23 12:49:15;;;;;;;56.60;23.55;;;0.90;99.90;;;;;;5011998;28;20054;-73
2021/12/23 12:51:47;;;;;;;53.70;21.58;;;0.40;99.90;;;;;;5024989;28;20537;-74
2021/12/23 12:54:18;;;;;;;56.10;22.60;;;0.40;99.90;;;;;;5027612;28;20068;-74
2021/12/23 12:56:49;;;;;;;60.60;23.45;;;1.60;99.90;;;;;;5007754;28;20093;-74
2021/12/23 12:59:17;;;;;;;54.25;22.73;;;0.40;99.90;;;;;;5015183;28;20081;-74
2021/12/23 13:01:48;;;;;;;61.60;24.25;;;0.40;99.90;;;;;;5013174;28;20053;-74
2021/12/23 13:04:30;;;;;;;56.67;23.95;;;0.50;99.90;;;;;;5008550;28;20644;-75
2021/12/23 13:06:58;;;;;;;56.38;21.48;;;1.30;99.90;;;;;;5019024;28;20045;-74
2021/12/23 13:09:35;;;;;;;57.75;23.27;;;0.50;99.90;;;;;;5009053;28;20049;-75
2021/12/23 13:12:04;;;;;;;57.38;22.48;;;0.50;99.90;;;;;;5005602;28;20052;-74
2021/12/23 13:15:08;;;;;;;55.47;22.45;;;0.50;99.90;;;;;;5016325;28;20502;-74
2021/12/23 13:18:05;;;;;;;53.33;21.98;;;0.50;99.90;;;;;;5013003;28;20073;-75
2021/12/23 13:20:48;;;;;;;54.95;22.27;;;0.50;99.90;;;;;;5029915;28;20060;-75
2021/12/23 13:23:33;;;;;;;61.58;22.52;;;0.50;99.90;;;;;;5027663;28;20049;-75
2021/12/23 13:26:05;;;;;;;53.83;21.48;;;0.50;99.90;;;;;;5013129;28;20089;-75
2021/12/23 13:28:31;;;;;;;56.20;22.45;;;0.50;99.90;;;;;;5026195;28;20057;-75
2021/12/23 13:30:58;;;;;;;57.55;24.08;;;0.50;99.90;;;;;;5029230;28;20115;-76
2021/12/23 13:33:25;;;;;;;57.90;23.05;;;0.60;99.90;;;;;;5022096;28;20142;-75
2021/12/23 13:35:51;;;;;;;60.40;23.35;;;0.50;99.90;;;;;;5019082;28;20511;-75
2021/12/23 13:38:39;;;;;;;60.78;24.02;;;1.10;99.90;;;;;;5023617;28;20121;-76
2021/12/23 13:41:15;;;;;;;;;;;0.50;99.90;;;;;;5022888;28;20184;-76
2021/12/23 13:43:41;;;;;;;56.15;21.48;;;0.50;99.90;;;;;;5024975;28;19929;-80
2021/12/23 13:46:08;;;;;;;54.60;22.30;;;0.50;99.90;;;;;;5005763;28;20045;-76
2021/12/23 13:48:58;;;;;;;56.58;23.05;;;0.50;99.90;;;;;;5014639;28;20169;-75
2021/12/23 13:51:27;;;;;;;48.28;20.17;;;0.60;99.90;;;;;;4995035;28;20116;-75
2021/12/23 13:54:06;;;;;;;59.13;22.77;;;0.60;99.90;;;;;;5020310;28;20550;-75
2021/12/23 13:56:33;;;;;;;55.83;22.40;;;0.60;99.90;;;;;;4996703;28;20058;-75
2021/12/23 13:59:20;;;;;;;55.63;21.75;;;0.60;99.90;;;;;;5014654;28;20384;-75
2021/12/23 14:02:06;;;;;;;61.92;25.20;;;0.60;99.90;;;;;;5005818;28;20045;-79
2021/12/23 14:04:37;;;;;;;53.17;20.48;;;0.60;99.90;;;;;;5022271;28;20494;-76
2021/12/23 14:07:29;;;;;;;61.63;23.55;;;0.60;99.90;;;;;;4999747;28;20458;-75
2021/12/23 14:10:20;;;;;;;60.70;22.88;;;0.60;99.90;;;;;;5020884;28;20069;-75